sensor_id;sensor_type;location;lat;lon;timestamp;pressure;altitude;pressure_sealevel;temperature;humidity
46394;BME280;32099;53.588;10.176;2023-03-23T00:00:57;99951.53;;;11.92;78.06
46394;BME280;32099;53.588;10.176;2023-03-23T00:03:23;99948.16;;;11.89;78.31
46394;BME280;32099;53.588;10.176;2023-03-23T00:05:51;99954.47;;;11.90;79.87
46394;BME280;32099;53.588;10.176;2023-03-23T00:08:17;99958.03;;;11.84;79.41
46394;BME280;32099;53.588;10.176;2023-03-23T00:10:47;99942.69;;;11.76;80.98
46394;BME280;32099;53.588;10.176;2023-03-23T00:13:13;99937.03;;;11.71;81.20
46394;BME280;32099;53.588;10.176;2023-03-23T00:15:44;99946.28;;;11.70;80.92
46394;BME280;32099;53.588;10.176;2023-03-23T00:18:10;99937.69;;;11.66;81.34
46394;BME280;32099;53.588;10.176;2023-03-23T00:20:47;99934.94;;;11.66;81.93
46394;BME280;32099;53.588;10.176;2023-03-23T00:23:14;99943.78;;;11.62;81.81
46394;BME280;32099;53.588;10.176;2023-03-23T00:25:44;99941.22;;;11.60;83.42
46394;BME280;32099;53.588;10.176;2023-03-23T00:28:10;99940.19;;;11.54;83.58
46394;BME280;32099;53.588;10.176;2023-03-23T00:30:37;99935.34;;;11.50;83.09
46394;BME280;32099;53.588;10.176;2023-03-23T00:33:03;99933.47;;;11.50;83.16
46394;BME280;32099;53.588;10.176;2023-03-23T00:35:29;99931.16;;;11.47;84.31
46394;BME280;32099;53.588;10.176;2023-03-23T00:37:55;99925.06;;;11.45;84.54
46394;BME280;32099;53.588;10.176;2023-03-23T00:40:21;99946.25;;;11.43;83.80
46394;BME280;32099;53.588;10.176;2023-03-23T00:42:46;99927.16;;;11.43;85.52
46394;BME280;32099;53.588;10.176;2023-03-23T00:45:13;99928.19;;;11.42;84.81
46394;BME280;32099;53.588;10.176;2023-03-23T00:47:39;99923.78;;;11.41;85.72
46394;BME280;32099;53.588;10.176;2023-03-23T00:50:06;99915.41;;;11.36;85.67
46394;BME280;32099;53.588;10.176;2023-03-23T00:52:32;99901.34;;;11.32;85.23
46394;BME280;32099;53.588;10.176;2023-03-23T00:54:58;99902.16;;;11.33;86.01
46394;BME280;32099;53.588;10.176;2023-03-23T00:57:23;99893.97;;;11.33;86.17
46394;BME280;32099;53.588;10.176;2023-03-23T00:59:51;99886.63;;;11.26;87.71
46394;BME280;32099;53.588;10.176;2023-03-23T01:02:17;99868.78;;;11.24;86.11
46394;BME280;32099;53.588;10.176;2023-03-23T01:04:43;99869.22;;;11.21;87.39
46394;BME280;32099;53.588;10.176;2023-03-23T01:07:11;99865.22;;;11.17;87.31
46394;BME280;32099;53.588;10.176;2023-03-23T01:09:37;99874.84;;;11.19;86.37
46394;BME280;32099;53.588;10.176;2023-03-23T01:12:04;99868.34;;;11.20;88.08
46394;BME280;32099;53.588;10.176;2023-03-23T01:14:30;99861.63;;;11.23;86.79
46394;BME280;32099;53.588;10.176;2023-03-23T01:16:56;99852.19;;;11.25;86.31
46394;BME280;32099;53.588;10.176;2023-03-23T01:19:21;99858.06;;;11.29;85.50
46394;BME280;32099;53.588;10.176;2023-03-23T01:21:47;99850.72;;;11.30;87.48
46394;BME280;32099;53.588;10.176;2023-03-23T01:24:12;99844.44;;;11.29;86.41
46394;BME280;32099;53.588;10.176;2023-03-23T01:26:38;99835.38;;;11.29;86.10
46394;BME280;32099;53.588;10.176;2023-03-23T01:29:03;99833.72;;;11.27;85.72
46394;BME280;32099;53.588;10.176;2023-03-23T01:31:29;99823.00;;;11.26;87.27
46394;BME280;32099;53.588;10.176;2023-03-23T01:33:54;99823.44;;;11.23;87.11
46394;BME280;32099;53.588;10.176;2023-03-23T01:36:24;99831.19;;;11.19;87.98
46394;BME280;32099;53.588;10.176;2023-03-23T01:38:53;99824.69;;;11.14;88.78
46394;BME280;32099;53.588;10.176;2023-03-23T01:41:19;99828.06;;;11.16;87.17
46394;BME280;32099;53.588;10.176;2023-03-23T01:46:31;99826.78;;;11.18;88.42
46394;BME280;32099;53.588;10.176;2023-03-23T01:49:00;99827.00;;;11.17;86.86
46394;BME280;32099;53.588;10.176;2023-03-23T01:51:32;99821.13;;;11.20;87.33
46394;BME280;32099;53.588;10.176;2023-03-23T01:54:02;99816.28;;;11.22;86.81
46394;BME280;32099;53.588;10.176;2023-03-23T01:56:33;99826.16;;;11.23;86.69
46394;BME280;32099;53.588;10.176;2023-03-23T01:59:05;99814.63;;;11.21;87.10
46394;BME280;32099;53.588;10.176;2023-03-23T02:01:32;99808.31;;;11.20;88.72
46394;BME280;32099;53.588;10.176;2023-03-23T02:04:01;99805.81;;;11.19;89.24
46394;BME280;32099;53.588;10.176;2023-03-23T02:06:27;99797.00;;;11.17;87.68
46394;BME280;32099;53.588;10.176;2023-03-23T02:08:52;99798.88;;;11.16;88.17
46394;BME280;32099;53.588;10.176;2023-03-23T02:11:18;99794.69;;;11.14;87.92
46394;BME280;32099;53.588;10.176;2023-03-23T02:13:46;99798.25;;;11.14;89.24
46394;BME280;32099;53.588;10.176;2023-03-23T02:18:46;99803.50;;;11.09;91.22
46394;BME280;32099;53.588;10.176;2023-03-23T02:21:50;99805.81;;;11.05;92.13
46394;BME280;32099;53.588;10.176;2023-03-23T02:25:21;99797.84;;;11.04;91.37
46394;BME280;32099;53.588;10.176;2023-03-23T02:27:39;99792.81;;;11.01;90.42
46394;BME280;32099;53.588;10.176;2023-03-23T02:35:39;99790.25;;;11.06;90.87
46394;BME280;32099;53.588;10.176;2023-03-23T02:38:14;99793.00;;;11.06;90.71
46394;BME280;32099;53.588;10.176;2023-03-23T02:40:44;99782.72;;;11.08;90.25
46394;BME280;32099;53.588;10.176;2023-03-23T02:43:15;99790.91;;;11.08;91.79
46394;BME280;32099;53.588;10.176;2023-03-23T02:45:45;99783.75;;;11.07;93.08
46394;BME280;32099;53.588;10.176;2023-03-23T02:48:11;99774.53;;;11.08;92.51
46394;BME280;32099;53.588;10.176;2023-03-23T02:50:40;99775.38;;;11.08;90.11
46394;BME280;32099;53.588;10.176;2023-03-23T02:53:10;99769.50;;;11.11;91.03
46394;BME280;32099;53.588;10.176;2023-03-23T02:55:39;99762.16;;;11.12;90.83
46394;BME280;32099;53.588;10.176;2023-03-23T02:58:07;99771.81;;;11.15;91.92
46394;BME280;32099;53.588;10.176;2023-03-23T03:00:33;99771.81;;;11.15;90.90
46394;BME280;32099;53.588;10.176;2023-03-23T03:02:58;99769.50;;;11.18;91.46
46394;BME280;32099;53.588;10.176;2023-03-23T03:11:19;99761.09;;;11.20;90.88
46394;BME280;32099;53.588;10.176;2023-03-23T03:18:58;99755.66;;;11.26;90.61
46394;BME280;32099;53.588;10.176;2023-03-23T03:21:39;99748.06;;;11.29;89.97
46394;BME280;32099;53.588;10.176;2023-03-23T03:24:08;99736.50;;;11.33;90.55
46394;BME280;32099;53.588;10.176;2023-03-23T03:26:36;99741.78;;;11.35;89.79
46394;BME280;32099;53.588;10.176;2023-03-23T03:29:06;99733.59;;;11.35;90.09
46394;BME280;32099;53.588;10.176;2023-03-23T03:31:32;99716.97;;;11.36;88.79
46394;BME280;32099;53.588;10.176;2023-03-23T03:34:03;99690.53;;;11.37;90.29
46394;BME280;32099;53.588;10.176;2023-03-23T03:36:30;99705.88;;;11.38;89.29
46394;BME280;32099;53.588;10.176;2023-03-23T03:39:00;99688.66;;;11.37;89.93
46394;BME280;32099;53.588;10.176;2023-03-23T03:41:30;99713.84;;;11.39;88.83
46394;BME280;32099;53.588;10.176;2023-03-23T03:43:55;99701.25;;;11.38;89.97
46394;BME280;32099;53.588;10.176;2023-03-23T03:46:20;99679.41;;;11.38;89.46
46394;BME280;32099;53.588;10.176;2023-03-23T03:48:46;99703.34;;;11.36;89.07
46394;BME280;32099;53.588;10.176;2023-03-23T03:51:11;99679.19;;;11.40;88.98
46394;BME280;32099;53.588;10.176;2023-03-23T03:53:36;99690.31;;;11.38;89.25
46394;BME280;32099;53.588;10.176;2023-03-23T03:56:02;99679.81;;;11.42;88.42
46394;BME280;32099;53.588;10.176;2023-03-23T03:58:27;99698.91;;;11.42;89.04
46394;BME280;32099;53.588;10.176;2023-03-23T04:00:57;99704.38;;;11.42;89.46
46394;BME280;32099;53.588;10.176;2023-03-23T04:03:25;99707.31;;;11.40;89.88
46394;BME280;32099;53.588;10.176;2023-03-23T04:05:52;99697.47;;;11.39;89.67
46394;BME280;32099;53.588;10.176;2023-03-23T04:08:19;99700.19;;;11.39;89.97
46394;BME280;32099;53.588;10.176;2023-03-23T04:10:46;99709.00;;;11.41;89.42
46394;BME280;32099;53.588;10.176;2023-03-23T04:13:12;99708.78;;;11.43;89.15
46394;BME280;32099;53.588;10.176;2023-03-23T04:15:37;99705.41;;;11.41;89.27
46394;BME280;32099;53.588;10.176;2023-03-23T04:18:03;99697.47;;;11.39;89.72
46394;BME280;32099;53.588;10.176;2023-03-23T04:20:30;99707.97;;;11.42;89.18
46394;BME280;32099;53.588;10.176;2023-03-23T04:22:55;99718.66;;;11.44;89.21
46394;BME280;32099;53.588;10.176;2023-03-23T04:25:21;99716.16;;;11.42;90.95
46394;BME280;32099;53.588;10.176;2023-03-23T04:27:47;99709.63;;;11.44;89.27
46394;BME280;32099;53.588;10.176;2023-03-23T04:30:17;99720.56;;;11.44;90.84
46394;BME280;32099;53.588;10.176;2023-03-23T04:32:44;99725.38;;;11.41;90.10
46394;BME280;32099;53.588;10.176;2023-03-23T04:35:10;99719.94;;;11.41;89.64
46394;BME280;32099;53.588;10.176;2023-03-23T04:37:39;99718.88;;;11.42;89.26
46394;BME280;32099;53.588;10.176;2023-03-23T04:40:06;99724.34;;;11.42;89.94
46394;BME280;32099;53.588;10.176;2023-03-23T04:42:35;99716.97;;;11.43;89.34
46394;BME280;32099;53.588;10.176;2023-03-23T04:45:02;99727.66;;;11.45;89.64
46394;BME280;32099;53.588;10.176;2023-03-23T04:47:31;99722.84;;;11.47;88.65
46394;BME280;32099;53.588;10.176;2023-03-23T04:49:59;99713.19;;;11.51;88.72
46394;BME280;32099;53.588;10.176;2023-03-23T04:52:25;99718.84;;;11.56;88.25
46394;BME280;32099;53.588;10.176;2023-03-23T04:54:53;99714.44;;;11.55;88.71
46394;BME280;32099;53.588;10.176;2023-03-23T04:57:20;99714.63;;;11.53;88.46
46394;BME280;32099;53.588;10.176;2023-03-23T04:59:46;99708.53;;;11.51;88.79
46394;BME280;32099;53.588;10.176;2023-03-23T05:02:12;99711.72;;;11.48;88.55
46394;BME280;32099;53.588;10.176;2023-03-23T05:04:38;99707.31;;;11.47;89.90
46394;BME280;32099;53.588;10.176;2023-03-23T05:07:03;99687.56;;;11.45;89.51
46394;BME280;32099;53.588;10.176;2023-03-23T05:09:29;99697.88;;;11.43;89.57
46394;BME280;32099;53.588;10.176;2023-03-23T05:11:54;99692.41;;;11.43;89.27
46394;BME280;32099;53.588;10.176;2023-03-23T05:14:20;99681.72;;;11.41;89.17
46394;BME280;32099;53.588;10.176;2023-03-23T05:16:46;99692.63;;;11.41;89.29
46394;BME280;32099;53.588;10.176;2023-03-23T05:19:13;99686.13;;;11.42;89.02
46394;BME280;32099;53.588;10.176;2023-03-23T05:21:39;99698.72;;;11.44;88.73
46394;BME280;32099;53.588;10.176;2023-03-23T05:24:05;99686.72;;;11.45;89.58
46394;BME280;32099;53.588;10.176;2023-03-23T05:26:31;99691.34;;;11.44;90.03
46394;BME280;32099;53.588;10.176;2023-03-23T05:28:57;99689.69;;;11.43;90.02
46394;BME280;32099;53.588;10.176;2023-03-23T05:31:23;99688.41;;;11.46;88.96
46394;BME280;32099;53.588;10.176;2023-03-23T05:33:49;99695.34;;;11.48;89.53
46394;BME280;32099;53.588;10.176;2023-03-23T05:36:15;99692.16;;;11.51;89.56
46394;BME280;32099;53.588;10.176;2023-03-23T05:38:40;99693.25;;;11.50;89.98
46394;BME280;32099;53.588;10.176;2023-03-23T05:41:10;99676.22;;;11.48;89.76
46394;BME280;32099;53.588;10.176;2023-03-23T05:43:35;99699.53;;;11.51;89.57
46394;BME280;32099;53.588;10.176;2023-03-23T05:46:01;99683.97;;;11.51;89.71
46394;BME280;32099;53.588;10.176;2023-03-23T05:48:26;99700.34;;;11.51;89.50
46394;BME280;32099;53.588;10.176;2023-03-23T05:50:52;99684.81;;;11.52;88.90
46394;BME280;32099;53.588;10.176;2023-03-23T05:53:17;99666.13;;;11.49;89.22
46394;BME280;32099;53.588;10.176;2023-03-23T05:55:42;99688.19;;;11.54;89.51
46394;BME280;32099;53.588;10.176;2023-03-23T05:58:08;99691.13;;;11.52;89.01
46394;BME280;32099;53.588;10.176;2023-03-23T06:00:33;99676.00;;;11.56;89.06
46394;BME280;32099;53.588;10.176;2023-03-23T06:02:59;99673.88;;;11.58;88.31
46394;BME280;32099;53.588;10.176;2023-03-23T06:05:25;99680.38;;;11.64;88.07
46394;BME280;32099;53.588;10.176;2023-03-23T06:07:51;99685.84;;;11.64;87.76
46394;BME280;32099;53.588;10.176;2023-03-23T06:10:18;99689.84;;;11.62;88.62
46394;BME280;32099;53.588;10.176;2023-03-23T06:12:43;99684.59;;;11.60;88.46
46394;BME280;32099;53.588;10.176;2023-03-23T06:15:09;99678.50;;;11.58;87.61
46394;BME280;32099;53.588;10.176;2023-03-23T06:17:35;99681.22;;;11.58;88.49
46394;BME280;32099;53.588;10.176;2023-03-23T06:20:03;99676.63;;;11.58;87.74
46394;BME280;32099;53.588;10.176;2023-03-23T06:22:35;99678.28;;;11.60;87.49
46394;BME280;32099;53.588;10.176;2023-03-23T06:25:02;99677.44;;;11.59;87.70
46394;BME280;32099;53.588;10.176;2023-03-23T06:27:29;99676.38;;;11.60;87.50
46394;BME280;32099;53.588;10.176;2023-03-23T06:29:55;99671.56;;;11.62;87.37
46394;BME280;32099;53.588;10.176;2023-03-23T06:32:21;99681.00;;;11.66;87.22
46394;BME280;32099;53.588;10.176;2023-03-23T06:34:48;99683.09;;;11.71;86.90
46394;BME280;32099;53.588;10.176;2023-03-23T06:37:14;99687.91;;;11.69;87.15
46394;BME280;32099;53.588;10.176;2023-03-23T06:39:40;99684.56;;;11.67;87.52
46394;BME280;32099;53.588;10.176;2023-03-23T06:42:08;99689.19;;;11.66;86.80
46394;BME280;32099;53.588;10.176;2023-03-23T06:44:35;99683.72;;;11.66;86.60
46394;BME280;32099;53.588;10.176;2023-03-23T06:47:00;99692.94;;;11.72;86.69
46394;BME280;32099;53.588;10.176;2023-03-23T06:49:27;99689.75;;;11.75;87.67
46394;BME280;32099;53.588;10.176;2023-03-23T06:51:52;99694.81;;;11.78;86.98
46394;BME280;32099;53.588;10.176;2023-03-23T06:54:17;99678.63;;;11.77;86.68
46394;BME280;32099;53.588;10.176;2023-03-23T06:56:43;99683.25;;;11.76;86.88
46394;BME280;32099;53.588;10.176;2023-03-23T06:59:08;99685.97;;;11.76;86.91
46394;BME280;32099;53.588;10.176;2023-03-23T07:01:35;99681.38;;;11.77;86.81
46394;BME280;32099;53.588;10.176;2023-03-23T07:04:00;99685.78;;;11.78;87.21
46394;BME280;32099;53.588;10.176;2023-03-23T07:06:25;99684.50;;;11.80;86.76
46394;BME280;32099;53.588;10.176;2023-03-23T07:08:52;99678.38;;;11.85;87.19
46394;BME280;32099;53.588;10.176;2023-03-23T07:11:17;99684.47;;;11.87;86.89
46394;BME280;32099;53.588;10.176;2023-03-23T07:13:42;99685.06;;;11.96;86.79
46394;BME280;32099;53.588;10.176;2023-03-23T07:16:08;99673.69;;;12.06;85.93
46394;BME280;32099;53.588;10.176;2023-03-23T07:18:34;99676.16;;;12.14;85.30
46394;BME280;32099;53.588;10.176;2023-03-23T07:20:59;99677.81;;;12.15;84.95
46394;BME280;32099;53.588;10.176;2023-03-23T07:23:25;99694.03;;;12.16;84.81
46394;BME280;32099;53.588;10.176;2023-03-23T07:25:50;99682.63;;;12.19;85.32
46394;BME280;32099;53.588;10.176;2023-03-23T07:28:16;99690.59;;;12.28;84.12
46394;BME280;32099;53.588;10.176;2023-03-23T07:30:41;99688.19;;;12.38;84.78
46394;BME280;32099;53.588;10.176;2023-03-23T07:33:08;99679.72;;;12.46;84.64
46394;BME280;32099;53.588;10.176;2023-03-23T07:35:34;99688.34;;;12.43;83.90
46394;BME280;32099;53.588;10.176;2023-03-23T07:38:00;99692.56;;;12.46;83.31
46394;BME280;32099;53.588;10.176;2023-03-23T07:40:27;99689.59;;;12.47;83.50
46394;BME280;32099;53.588;10.176;2023-03-23T07:42:54;99693.63;;;12.45;83.94
46394;BME280;32099;53.588;10.176;2023-03-23T07:45:21;99704.94;;;12.48;82.52
46394;BME280;32099;53.588;10.176;2023-03-23T07:47:47;99692.72;;;12.51;83.21
46394;BME280;32099;53.588;10.176;2023-03-23T07:50:13;99694.78;;;12.56;82.83
46394;BME280;32099;53.588;10.176;2023-03-23T07:52:38;99702.31;;;12.60;82.67
46394;BME280;32099;53.588;10.176;2023-03-23T07:55:06;99699.59;;;12.60;81.98
46394;BME280;32099;53.588;10.176;2023-03-23T07:57:33;99707.34;;;12.63;82.54
46394;BME280;32099;53.588;10.176;2023-03-23T08:00:00;99702.31;;;12.60;82.45
46394;BME280;32099;53.588;10.176;2023-03-23T08:02:26;99698.75;;;12.60;81.87
46394;BME280;32099;53.588;10.176;2023-03-23T08:04:51;99709.09;;;12.58;81.75
46394;BME280;32099;53.588;10.176;2023-03-23T08:07:18;99708.47;;;12.56;82.50
46394;BME280;32099;53.588;10.176;2023-03-23T08:09:44;99706.59;;;12.56;82.89
46394;BME280;32099;53.588;10.176;2023-03-23T08:12:09;99709.72;;;12.60;82.55
46394;BME280;32099;53.588;10.176;2023-03-23T08:14:35;99710.72;;;12.65;82.35
46394;BME280;32099;53.588;10.176;2023-03-23T08:17:00;99701.84;;;12.70;82.91
46394;BME280;32099;53.588;10.176;2023-03-23T08:19:26;99714.06;;;12.68;81.93
46394;BME280;32099;53.588;10.176;2023-03-23T08:21:53;99711.34;;;12.68;83.56
46394;BME280;32099;53.588;10.176;2023-03-23T08:24:19;99711.72;;;12.71;83.28
46394;BME280;32099;53.588;10.176;2023-03-23T08:26:44;99726.22;;;12.72;83.25
46394;BME280;32099;53.588;10.176;2023-03-23T08:29:09;99726.84;;;12.74;84.27
46394;BME280;32099;53.588;10.176;2023-03-23T08:31:35;99732.31;;;12.74;83.41
46394;BME280;32099;53.588;10.176;2023-03-23T08:34:02;99732.38;;;12.67;83.66
46394;BME280;32099;53.588;10.176;2023-03-23T08:36:29;99737.06;;;12.60;83.89
46394;BME280;32099;53.588;10.176;2023-03-23T08:38:56;99742.41;;;12.48;84.21
46394;BME280;32099;53.588;10.176;2023-03-23T08:41:22;99760.97;;;12.39;86.71
46394;BME280;32099;53.588;10.176;2023-03-23T08:43:49;99767.13;;;12.28;88.23
46394;BME280;32099;53.588;10.176;2023-03-23T08:46:16;99764.00;;;12.17;88.71
46394;BME280;32099;53.588;10.176;2023-03-23T08:48:43;99733.16;;;12.03;87.46
46394;BME280;32099;53.588;10.176;2023-03-23T08:51:08;99737.44;;;11.86;85.22
46394;BME280;32099;53.588;10.176;2023-03-23T08:53:35;99732.00;;;11.72;85.92
46394;BME280;32099;53.588;10.176;2023-03-23T08:56:05;99748.38;;;11.72;86.08
46394;BME280;32099;53.588;10.176;2023-03-23T08:58:32;99758.88;;;11.82;86.62
46394;BME280;32099;53.588;10.176;2023-03-23T09:00:59;99765.34;;;11.95;86.69
46394;BME280;32099;53.588;10.176;2023-03-23T09:03:25;99763.84;;;12.06;86.61
46394;BME280;32099;53.588;10.176;2023-03-23T09:05:50;99755.19;;;12.15;86.94
46394;BME280;32099;53.588;10.176;2023-03-23T09:08:15;99754.28;;;12.28;86.87
46394;BME280;32099;53.588;10.176;2023-03-23T09:10:40;99752.75;;;12.39;88.47
46394;BME280;32099;53.588;10.176;2023-03-23T09:13:06;99748.66;;;12.55;87.10
46394;BME280;32099;53.588;10.176;2023-03-23T09:15:31;99760.28;;;12.76;86.73
46394;BME280;32099;53.588;10.176;2023-03-23T09:17:57;99762.50;;;12.92;86.21
46394;BME280;32099;53.588;10.176;2023-03-23T09:20:25;99782.38;;;13.06;86.17
46394;BME280;32099;53.588;10.176;2023-03-23T09:22:53;99767.78;;;13.12;84.92
46394;BME280;32099;53.588;10.176;2023-03-23T09:25:20;99761.25;;;13.14;84.19
46394;BME280;32099;53.588;10.176;2023-03-23T09:27:51;99764.22;;;13.12;81.24
46394;BME280;32099;53.588;10.176;2023-03-23T09:30:21;99769.56;;;13.00;81.80
46394;BME280;32099;53.588;10.176;2023-03-23T09:32:48;99785.03;;;12.88;80.66
46394;BME280;32099;53.588;10.176;2023-03-23T09:35:14;99785.97;;;12.75;79.30
46394;BME280;32099;53.588;10.176;2023-03-23T09:37:42;99788.13;;;12.66;80.18
46394;BME280;32099;53.588;10.176;2023-03-23T09:40:16;99795.97;;;12.56;79.91
46394;BME280;32099;53.588;10.176;2023-03-23T09:45:19;99789.91;;;12.54;79.08
46394;BME280;32099;53.588;10.176;2023-03-23T09:50:28;99807.97;;;12.55;79.97
46394;BME280;32099;53.588;10.176;2023-03-23T09:53:00;99805.03;;;12.56;80.13
46394;BME280;32099;53.588;10.176;2023-03-23T09:55:33;99802.03;;;12.64;79.70
46394;BME280;32099;53.588;10.176;2023-03-23T10:01:25;99813.00;;;13.22;78.23
46394;BME280;32099;53.588;10.176;2023-03-23T10:03:53;99817.25;;;13.43;77.34
46394;BME280;32099;53.588;10.176;2023-03-23T10:06:26;99815.22;;;13.57;76.11
46394;BME280;32099;53.588;10.176;2023-03-23T10:08:52;99823.16;;;13.84;75.36
46394;BME280;32099;53.588;10.176;2023-03-23T10:11:33;99824.00;;;14.03;72.68
46394;BME280;32099;53.588;10.176;2023-03-23T10:14:10;99822.34;;;14.02;74.99
46394;BME280;32099;53.588;10.176;2023-03-23T10:16:41;99819.13;;;13.86;72.81
46394;BME280;32099;53.588;10.176;2023-03-23T10:19:17;99829.44;;;13.66;73.77
46394;BME280;32099;53.588;10.176;2023-03-23T10:21:50;99828.31;;;13.55;74.66
46394;BME280;32099;53.588;10.176;2023-03-23T10:24:19;99827.63;;;13.60;75.87
46394;BME280;32099;53.588;10.176;2023-03-23T10:29:43;99839.28;;;13.92;74.75
46394;BME280;32099;53.588;10.176;2023-03-23T10:32:17;99843.13;;;13.91;71.32
46394;BME280;32099;53.588;10.176;2023-03-23T10:34:57;99840.84;;;13.88;72.12
46394;BME280;32099;53.588;10.176;2023-03-23T10:37:35;99845.69;;;13.86;71.76
46394;BME280;32099;53.588;10.176;2023-03-23T10:40:04;99825.97;;;13.77;74.09
46394;BME280;32099;53.588;10.176;2023-03-23T10:42:38;99816.69;;;13.78;73.90
46394;BME280;32099;53.588;10.176;2023-03-23T10:47:56;99829.19;;;13.74;73.13
46394;BME280;32099;53.588;10.176;2023-03-23T10:50:29;99843.53;;;13.69;72.84
46394;BME280;32099;53.588;10.176;2023-03-23T10:52:57;99859.81;;;13.64;73.83
46394;BME280;32099;53.588;10.176;2023-03-23T10:55:34;99862.06;;;13.49;72.68
46394;BME280;32099;53.588;10.176;2023-03-23T10:58:03;99867.78;;;13.47;74.47
46394;BME280;32099;53.588;10.176;2023-03-23T11:00:29;99865.41;;;13.51;74.29
46394;BME280;32099;53.588;10.176;2023-03-23T11:03:00;99853.56;;;13.57;75.51
46394;BME280;32099;53.588;10.176;2023-03-23T11:08:20;99852.72;;;13.56;73.09
46394;BME280;32099;53.588;10.176;2023-03-23T11:10:56;99857.31;;;13.63;72.87
46394;BME280;32099;53.588;10.176;2023-03-23T11:13:27;99861.66;;;13.70;71.85
46394;BME280;32099;53.588;10.176;2023-03-23T11:15:55;99874.91;;;13.73;70.20
46394;BME280;32099;53.588;10.176;2023-03-23T11:18:23;99862.06;;;13.74;69.85
46394;BME280;32099;53.588;10.176;2023-03-23T11:20:55;99865.38;;;13.76;70.80
46394;BME280;32099;53.588;10.176;2023-03-23T11:23:32;99871.88;;;13.82;72.40
46394;BME280;32099;53.588;10.176;2023-03-23T11:28:48;99872.78;;;13.94;71.92
46394;BME280;32099;53.588;10.176;2023-03-23T11:31:21;99882.63;;;14.02;72.57
46394;BME280;32099;53.588;10.176;2023-03-23T11:36:38;99866.50;;;13.94;70.78
46394;BME280;32099;53.588;10.176;2023-03-23T11:39:19;99868.00;;;13.89;72.05
46394;BME280;32099;53.588;10.176;2023-03-23T11:41:48;99867.78;;;13.91;71.38
46394;BME280;32099;53.588;10.176;2023-03-23T11:44:13;99882.94;;;13.94;72.04
46394;BME280;32099;53.588;10.176;2023-03-23T11:46:42;99890.47;;;13.98;72.06
46394;BME280;32099;53.588;10.176;2023-03-23T11:49:18;99888.72;;;14.04;72.60
46394;BME280;32099;53.588;10.176;2023-03-23T11:51:54;99884.25;;;14.10;72.73
46394;BME280;32099;53.588;10.176;2023-03-23T11:54:33;99883.31;;;14.16;72.40
46394;BME280;32099;53.588;10.176;2023-03-23T11:57:06;99884.09;;;14.23;72.39
46394;BME280;32099;53.588;10.176;2023-03-23T11:59:34;99878.16;;;14.26;71.71
46394;BME280;32099;53.588;10.176;2023-03-23T12:07:56;99905.00;;;13.99;70.93
46394;BME280;32099;53.588;10.176;2023-03-23T12:10:51;99909.28;;;13.95;71.66
46394;BME280;32099;53.588;10.176;2023-03-23T12:13:37;99901.56;;;13.85;70.59
46394;BME280;32099;53.588;10.176;2023-03-23T12:19:16;99900.81;;;13.78;70.86
46394;BME280;32099;53.588;10.176;2023-03-23T12:24:34;99913.88;;;13.76;72.68
46394;BME280;32099;53.588;10.176;2023-03-23T12:35:41;99893.53;;;13.39;76.69
46394;BME280;32099;53.588;10.176;2023-03-23T12:38:32;99880.72;;;13.33;75.57
46394;BME280;32099;53.588;10.176;2023-03-23T12:41:16;99901.38;;;13.29;74.39
46394;BME280;32099;53.588;10.176;2023-03-23T12:43:52;99906.78;;;13.36;75.67
46394;BME280;32099;53.588;10.176;2023-03-23T12:46:28;99897.72;;;13.42;75.65
46394;BME280;32099;53.588;10.176;2023-03-23T12:57:12;99902.25;;;13.55;77.38
46394;BME280;32099;53.588;10.176;2023-03-23T13:00:05;99878.44;;;13.55;77.67
46394;BME280;32099;53.588;10.176;2023-03-23T13:05:36;99892.25;;;13.67;77.45
46394;BME280;32099;53.588;10.176;2023-03-23T13:08:14;99878.69;;;13.72;76.91
46394;BME280;32099;53.588;10.176;2023-03-23T13:10:48;99882.63;;;13.83;76.33
46394;BME280;32099;53.588;10.176;2023-03-23T13:13:19;99875.16;;;14.09;77.76
46394;BME280;32099;53.588;10.176;2023-03-23T13:16:06;99874.41;;;14.39;76.19
46394;BME280;32099;53.588;10.176;2023-03-23T13:18:42;99879.66;;;14.59;75.86
46394;BME280;32099;53.588;10.176;2023-03-23T13:21:34;99895.28;;;14.77;73.89
46394;BME280;32099;53.588;10.176;2023-03-23T13:24:08;99876.28;;;14.76;73.31
46394;BME280;32099;53.588;10.176;2023-03-23T13:26:39;99888.88;;;14.65;70.63
46394;BME280;32099;53.588;10.176;2023-03-23T13:29:14;99882.84;;;14.56;72.72
46394;BME280;32099;53.588;10.176;2023-03-23T13:31:46;99876.31;;;14.57;73.14
46394;BME280;32099;53.588;10.176;2023-03-23T13:36:57;99868.06;;;14.76;71.78
46394;BME280;32099;53.588;10.176;2023-03-23T13:44:40;99867.63;;;14.60;72.11
46394;BME280;32099;53.588;10.176;2023-03-23T13:47:16;99865.09;;;14.59;71.59
46394;BME280;32099;53.588;10.176;2023-03-23T13:49:46;99873.47;;;14.64;72.21
46394;BME280;32099;53.588;10.176;2023-03-23T13:52:22;99861.84;;;14.69;70.68
46394;BME280;32099;53.588;10.176;2023-03-23T13:55:12;99868.81;;;14.64;71.53
46394;BME280;32099;53.588;10.176;2023-03-23T13:57:57;99864.38;;;14.63;70.81
46394;BME280;32099;53.588;10.176;2023-03-23T14:00:47;99847.88;;;14.70;71.39
46394;BME280;32099;53.588;10.176;2023-03-23T14:10:48;99868.25;;;14.44;69.07
46394;BME280;32099;53.588;10.176;2023-03-23T14:13:25;99901.47;;;14.35;71.11
46394;BME280;32099;53.588;10.176;2023-03-23T14:16:00;99905.19;;;14.23;69.46
46394;BME280;32099;53.588;10.176;2023-03-23T14:18:30;99904.06;;;13.86;65.34
46394;BME280;32099;53.588;10.176;2023-03-23T14:21:03;99919.03;;;13.33;68.20
46394;BME280;32099;53.588;10.176;2023-03-23T14:23:31;99933.66;;;12.75;72.78
46394;BME280;32099;53.588;10.176;2023-03-23T14:25:59;99960.94;;;12.36;79.22
46394;BME280;32099;53.588;10.176;2023-03-23T14:28:35;99945.00;;;11.79;84.22
46394;BME280;32099;53.588;10.176;2023-03-23T14:31:03;99908.66;;;11.38;86.20